sensor_id;sensor_type;location;lat;lon;timestamp;P1;durP1;ratioP1;P2;durP2;ratioP2
6406;SDS011;3236;51.022;6.818;2023-02-28T00:00:13;4.88;;;2.72;;
6406;SDS011;3236;51.022;6.818;2023-02-28T00:02:42;3.70;;;2.58;;
6406;SDS011;3236;51.022;6.818;2023-02-28T00:05:12;4.07;;;2.47;;
6406;SDS011;3236;51.022;6.818;2023-02-28T00:07:40;3.55;;;2.45;;
6406;SDS011;3236;51.022;6.818;2023-02-28T00:10:09;4.45;;;2.20;;
6406;SDS011;3236;51.022;6.818;2023-02-28T00:12:38;4.47;;;2.63;;
6406;SDS011;3236;51.022;6.818;2023-02-28T00:15:05;6.05;;;2.35;;
6406;SDS011;3236;51.022;6.818;2023-02-28T00:17:37;5.47;;;2.45;;
6406;SDS011;3236;51.022;6.818;2023-02-28T00:20:06;7.60;;;2.87;;
6406;SDS011;3236;51.022;6.818;2023-02-28T00:22:37;6.63;;;2.85;;
6406;SDS011;3236;51.022;6.818;2023-02-28T00:25:05;5.72;;;2.75;;
6406;SDS011;3236;51.022;6.818;2023-02-28T00:27:33;7.15;;;3.50;;
6406;SDS011;3236;51.022;6.818;2023-02-28T00:30:02;7.53;;;2.58;;
6406;SDS011;3236;51.022;6.818;2023-02-28T00:32:30;8.15;;;2.65;;
6406;SDS011;3236;51.022;6.818;2023-02-28T00:34:58;7.82;;;3.00;;
6406;SDS011;3236;51.022;6.818;2023-02-28T00:37:26;5.07;;;2.60;;
6406;SDS011;3236;51.022;6.818;2023-02-28T00:39:53;4.25;;;2.10;;
6406;SDS011;3236;51.022;6.818;2023-02-28T00:42:20;3.55;;;1.63;;
6406;SDS011;3236;51.022;6.818;2023-02-28T00:44:47;3.80;;;2.88;;
6406;SDS011;3236;51.022;6.818;2023-02-28T00:47:14;3.72;;;2.17;;
6406;SDS011;3236;51.022;6.818;2023-02-28T00:49:42;4.47;;;2.10;;
6406;SDS011;3236;51.022;6.818;2023-02-28T00:52:09;9.18;;;2.67;;
6406;SDS011;3236;51.022;6.818;2023-02-28T00:54:38;4.93;;;2.70;;
6406;SDS011;3236;51.022;6.818;2023-02-28T00:57:08;3.85;;;2.22;;
6406;SDS011;3236;51.022;6.818;2023-02-28T00:59:36;4.22;;;2.40;;
6406;SDS011;3236;51.022;6.818;2023-02-28T01:02:03;2.70;;;2.20;;
6406;SDS011;3236;51.022;6.818;2023-02-28T01:04:30;3.60;;;2.22;;
6406;SDS011;3236;51.022;6.818;2023-02-28T01:06:57;4.60;;;2.08;;
6406;SDS011;3236;51.022;6.818;2023-02-28T01:09:24;4.32;;;2.42;;
6406;SDS011;3236;51.022;6.818;2023-02-28T01:11:52;5.72;;;1.92;;
6406;SDS011;3236;51.022;6.818;2023-02-28T01:14:19;4.53;;;2.30;;
6406;SDS011;3236;51.022;6.818;2023-02-28T01:16:46;4.50;;;2.40;;
6406;SDS011;3236;51.022;6.818;2023-02-28T01:19:13;5.90;;;2.25;;
6406;SDS011;3236;51.022;6.818;2023-02-28T01:21:41;3.88;;;2.33;;
6406;SDS011;3236;51.022;6.818;2023-02-28T01:24:08;5.53;;;2.58;;
6406;SDS011;3236;51.022;6.818;2023-02-28T01:26:35;8.20;;;2.38;;
6406;SDS011;3236;51.022;6.818;2023-02-28T01:29:03;3.67;;;2.28;;
6406;SDS011;3236;51.022;6.818;2023-02-28T01:31:33;2.90;;;1.92;;
6406;SDS011;3236;51.022;6.818;2023-02-28T01:34:01;2.70;;;2.13;;
6406;SDS011;3236;51.022;6.818;2023-02-28T01:36:31;4.72;;;2.08;;
6406;SDS011;3236;51.022;6.818;2023-02-28T01:38:59;3.35;;;2.22;;
6406;SDS011;3236;51.022;6.818;2023-02-28T01:41:31;3.33;;;2.13;;
6406;SDS011;3236;51.022;6.818;2023-02-28T01:44:01;7.25;;;1.95;;
6406;SDS011;3236;51.022;6.818;2023-02-28T01:46:31;5.50;;;2.47;;
6406;SDS011;3236;51.022;6.818;2023-02-28T01:49:01;4.22;;;2.30;;
6406;SDS011;3236;51.022;6.818;2023-02-28T01:51:37;4.28;;;2.00;;
6406;SDS011;3236;51.022;6.818;2023-02-28T01:54:11;7.05;;;2.17;;
6406;SDS011;3236;51.022;6.818;2023-02-28T01:56:42;3.13;;;2.42;;
6406;SDS011;3236;51.022;6.818;2023-02-28T01:59:14;4.75;;;2.25;;
6406;SDS011;3236;51.022;6.818;2023-02-28T02:01:50;9.35;;;2.33;;
6406;SDS011;3236;51.022;6.818;2023-02-28T02:04:17;3.45;;;2.05;;
6406;SDS011;3236;51.022;6.818;2023-02-28T02:06:45;3.65;;;2.30;;
6406;SDS011;3236;51.022;6.818;2023-02-28T02:09:23;2.90;;;2.03;;
6406;SDS011;3236;51.022;6.818;2023-02-28T02:11:50;5.07;;;2.40;;
6406;SDS011;3236;51.022;6.818;2023-02-28T02:14:28;3.60;;;2.17;;
6406;SDS011;3236;51.022;6.818;2023-02-28T02:17:07;7.30;;;2.58;;
6406;SDS011;3236;51.022;6.818;2023-02-28T02:20:00;3.92;;;2.40;;
6406;SDS011;3236;51.022;6.818;2023-02-28T02:28:35;3.60;;;2.08;;
6406;SDS011;3236;51.022;6.818;2023-02-28T02:31:31;4.43;;;2.10;;
6406;SDS011;3236;51.022;6.818;2023-02-28T02:34:28;5.13;;;2.40;;
6406;SDS011;3236;51.022;6.818;2023-02-28T02:37:09;3.42;;;2.13;;
6406;SDS011;3236;51.022;6.818;2023-02-28T02:39:44;6.95;;;2.17;;
6406;SDS011;3236;51.022;6.818;2023-02-28T02:42:16;3.83;;;2.35;;
6406;SDS011;3236;51.022;6.818;2023-02-28T02:44:49;2.58;;;2.10;;
6406;SDS011;3236;51.022;6.818;2023-02-28T02:47:22;4.07;;;2.15;;
6406;SDS011;3236;51.022;6.818;2023-02-28T02:49:54;3.50;;;2.22;;
6406;SDS011;3236;51.022;6.818;2023-02-28T02:54:54;3.75;;;2.03;;
6406;SDS011;3236;51.022;6.818;2023-02-28T02:57:23;4.45;;;2.28;;
6406;SDS011;3236;51.022;6.818;2023-02-28T02:59:55;3.10;;;2.25;;
6406;SDS011;3236;51.022;6.818;2023-02-28T03:02:23;3.85;;;2.08;;
6406;SDS011;3236;51.022;6.818;2023-02-28T03:04:51;5.53;;;2.20;;
6406;SDS011;3236;51.022;6.818;2023-02-28T03:07:26;2.28;;;1.80;;
6406;SDS011;3236;51.022;6.818;2023-02-28T03:09:54;4.28;;;2.22;;
6406;SDS011;3236;51.022;6.818;2023-02-28T03:12:22;3.35;;;2.03;;
6406;SDS011;3236;51.022;6.818;2023-02-28T03:14:56;5.63;;;2.45;;
6406;SDS011;3236;51.022;6.818;2023-02-28T03:17:34;5.47;;;2.50;;
6406;SDS011;3236;51.022;6.818;2023-02-28T03:20:15;2.58;;;2.15;;
6406;SDS011;3236;51.022;6.818;2023-02-28T03:22:55;4.85;;;2.30;;
6406;SDS011;3236;51.022;6.818;2023-02-28T03:25:31;3.17;;;2.30;;
6406;SDS011;3236;51.022;6.818;2023-02-28T03:28:05;4.35;;;2.40;;
6406;SDS011;3236;51.022;6.818;2023-02-28T03:30:41;3.45;;;2.72;;
6406;SDS011;3236;51.022;6.818;2023-02-28T03:33:17;5.07;;;2.17;;
6406;SDS011;3236;51.022;6.818;2023-02-28T03:35:50;3.67;;;2.13;;
6406;SDS011;3236;51.022;6.818;2023-02-28T03:38:22;4.57;;;3.03;;
6406;SDS011;3236;51.022;6.818;2023-02-28T03:40:56;4.95;;;2.70;;
6406;SDS011;3236;51.022;6.818;2023-02-28T03:43:29;4.88;;;2.50;;
6406;SDS011;3236;51.022;6.818;2023-02-28T03:46:02;4.32;;;2.78;;
6406;SDS011;3236;51.022;6.818;2023-02-28T03:48:35;4.63;;;3.20;;
6406;SDS011;3236;51.022;6.818;2023-02-28T03:51:08;3.65;;;2.67;;
6406;SDS011;3236;51.022;6.818;2023-02-28T03:53:41;4.50;;;2.80;;
6406;SDS011;3236;51.022;6.818;2023-02-28T03:56:12;5.97;;;3.25;;
6406;SDS011;3236;51.022;6.818;2023-02-28T03:58:45;7.22;;;3.00;;
6406;SDS011;3236;51.022;6.818;2023-02-28T04:01:18;6.47;;;2.67;;
6406;SDS011;3236;51.022;6.818;2023-02-28T04:03:50;5.60;;;2.83;;
6406;SDS011;3236;51.022;6.818;2023-02-28T04:06:20;8.52;;;3.38;;
6406;SDS011;3236;51.022;6.818;2023-02-28T04:08:49;6.57;;;2.63;;
6406;SDS011;3236;51.022;6.818;2023-02-28T04:11:21;6.40;;;3.30;;
6406;SDS011;3236;51.022;6.818;2023-02-28T04:13:49;5.80;;;3.58;;
6406;SDS011;3236;51.022;6.818;2023-02-28T04:16:16;7.80;;;3.05;;
6406;SDS011;3236;51.022;6.818;2023-02-28T04:18:43;4.78;;;3.10;;
6406;SDS011;3236;51.022;6.818;2023-02-28T04:21:11;4.15;;;3.28;;
6406;SDS011;3236;51.022;6.818;2023-02-28T04:23:39;4.70;;;3.25;;
6406;SDS011;3236;51.022;6.818;2023-02-28T04:26:09;5.72;;;3.63;;
6406;SDS011;3236;51.022;6.818;2023-02-28T04:28:36;9.27;;;3.47;;
6406;SDS011;3236;51.022;6.818;2023-02-28T04:31:04;8.10;;;3.28;;
6406;SDS011;3236;51.022;6.818;2023-02-28T04:33:31;5.75;;;3.72;;
6406;SDS011;3236;51.022;6.818;2023-02-28T04:35:59;7.55;;;3.30;;
6406;SDS011;3236;51.022;6.818;2023-02-28T04:38:28;6.75;;;3.50;;
6406;SDS011;3236;51.022;6.818;2023-02-28T04:40:58;5.15;;;3.17;;
6406;SDS011;3236;51.022;6.818;2023-02-28T04:43:25;4.65;;;3.05;;
6406;SDS011;3236;51.022;6.818;2023-02-28T04:45:53;5.68;;;3.45;;
6406;SDS011;3236;51.022;6.818;2023-02-28T04:48:22;4.47;;;3.33;;
6406;SDS011;3236;51.022;6.818;2023-02-28T04:50:49;4.63;;;3.40;;
6406;SDS011;3236;51.022;6.818;2023-02-28T04:53:17;11.52;;;3.65;;
6406;SDS011;3236;51.022;6.818;2023-02-28T04:55:44;4.45;;;2.92;;
6406;SDS011;3236;51.022;6.818;2023-02-28T04:58:13;4.63;;;3.50;;
6406;SDS011;3236;51.022;6.818;2023-02-28T05:00:41;6.32;;;3.40;;
6406;SDS011;3236;51.022;6.818;2023-02-28T05:03:08;7.13;;;3.60;;
6406;SDS011;3236;51.022;6.818;2023-02-28T05:05:35;7.80;;;3.42;;
6406;SDS011;3236;51.022;6.818;2023-02-28T05:08:02;7.45;;;3.33;;
6406;SDS011;3236;51.022;6.818;2023-02-28T05:10:30;5.03;;;3.22;;
6406;SDS011;3236;51.022;6.818;2023-02-28T05:12:57;6.10;;;3.13;;
6406;SDS011;3236;51.022;6.818;2023-02-28T05:15:25;4.05;;;3.05;;
6406;SDS011;3236;51.022;6.818;2023-02-28T05:17:52;10.02;;;3.00;;
6406;SDS011;3236;51.022;6.818;2023-02-28T05:20:19;3.88;;;2.75;;
6406;SDS011;3236;51.022;6.818;2023-02-28T05:22:47;8.05;;;2.97;;
6406;SDS011;3236;51.022;6.818;2023-02-28T05:25:16;6.78;;;3.05;;
6406;SDS011;3236;51.022;6.818;2023-02-28T05:27:44;5.60;;;3.60;;
6406;SDS011;3236;51.022;6.818;2023-02-28T05:30:12;6.22;;;3.25;;
6406;SDS011;3236;51.022;6.818;2023-02-28T05:32:41;7.22;;;3.17;;
6406;SDS011;3236;51.022;6.818;2023-02-28T05:35:11;4.35;;;3.03;;
6406;SDS011;3236;51.022;6.818;2023-02-28T05:37:38;4.30;;;3.00;;
6406;SDS011;3236;51.022;6.818;2023-02-28T05:40:06;4.82;;;2.45;;
6406;SDS011;3236;51.022;6.818;2023-02-28T05:42:35;6.28;;;2.95;;
6406;SDS011;3236;51.022;6.818;2023-02-28T05:45:03;3.05;;;2.70;;
6406;SDS011;3236;51.022;6.818;2023-02-28T05:47:30;5.00;;;3.00;;
6406;SDS011;3236;51.022;6.818;2023-02-28T05:49:59;5.47;;;2.88;;
6406;SDS011;3236;51.022;6.818;2023-02-28T05:52:26;7.68;;;3.70;;
6406;SDS011;3236;51.022;6.818;2023-02-28T05:54:53;5.90;;;3.00;;
6406;SDS011;3236;51.022;6.818;2023-02-28T05:57:20;4.88;;;3.55;;
6406;SDS011;3236;51.022;6.818;2023-02-28T05:59:47;3.63;;;2.72;;
6406;SDS011;3236;51.022;6.818;2023-02-28T06:02:14;4.57;;;2.38;;
6406;SDS011;3236;51.022;6.818;2023-02-28T06:04:43;5.00;;;3.03;;
6406;SDS011;3236;51.022;6.818;2023-02-28T06:07:11;4.03;;;2.97;;
6406;SDS011;3236;51.022;6.818;2023-02-28T06:09:39;5.15;;;2.78;;
6406;SDS011;3236;51.022;6.818;2023-02-28T06:12:06;6.00;;;2.90;;
6406;SDS011;3236;51.022;6.818;2023-02-28T06:14:35;7.22;;;2.80;;
6406;SDS011;3236;51.022;6.818;2023-02-28T06:17:02;5.20;;;2.85;;
6406;SDS011;3236;51.022;6.818;2023-02-28T06:19:33;3.70;;;2.42;;
6406;SDS011;3236;51.022;6.818;2023-02-28T06:22:02;5.68;;;2.40;;
6406;SDS011;3236;51.022;6.818;2023-02-28T06:24:30;6.05;;;2.42;;
6406;SDS011;3236;51.022;6.818;2023-02-28T06:26:58;4.00;;;2.35;;
6406;SDS011;3236;51.022;6.818;2023-02-28T06:29:30;2.65;;;2.22;;
6406;SDS011;3236;51.022;6.818;2023-02-28T06:31:57;5.75;;;3.08;;
6406;SDS011;3236;51.022;6.818;2023-02-28T06:34:24;4.43;;;3.03;;
6406;SDS011;3236;51.022;6.818;2023-02-28T06:36:51;4.22;;;2.55;;
6406;SDS011;3236;51.022;6.818;2023-02-28T06:39:18;8.73;;;3.03;;
6406;SDS011;3236;51.022;6.818;2023-02-28T06:41:47;2.65;;;2.13;;
6406;SDS011;3236;51.022;6.818;2023-02-28T06:44:16;2.70;;;2.50;;
6406;SDS011;3236;51.022;6.818;2023-02-28T06:46:44;3.47;;;2.50;;
6406;SDS011;3236;51.022;6.818;2023-02-28T06:49:12;5.13;;;2.45;;
6406;SDS011;3236;51.022;6.818;2023-02-28T06:51:40;4.50;;;2.00;;
6406;SDS011;3236;51.022;6.818;2023-02-28T06:54:10;5.88;;;2.95;;
6406;SDS011;3236;51.022;6.818;2023-02-28T06:56:37;3.33;;;2.10;;
6406;SDS011;3236;51.022;6.818;2023-02-28T06:59:06;3.47;;;2.45;;
6406;SDS011;3236;51.022;6.818;2023-02-28T07:01:36;3.35;;;2.33;;
6406;SDS011;3236;51.022;6.818;2023-02-28T07:04:04;3.30;;;2.50;;
6406;SDS011;3236;51.022;6.818;2023-02-28T07:06:32;6.85;;;2.90;;
6406;SDS011;3236;51.022;6.818;2023-02-28T07:08:59;3.80;;;2.55;;
6406;SDS011;3236;51.022;6.818;2023-02-28T07:11:27;3.03;;;2.35;;
6406;SDS011;3236;51.022;6.818;2023-02-28T07:13:54;8.55;;;2.53;;
6406;SDS011;3236;51.022;6.818;2023-02-28T07:16:24;4.03;;;2.75;;
6406;SDS011;3236;51.022;6.818;2023-02-28T07:18:52;3.15;;;2.45;;
6406;SDS011;3236;51.022;6.818;2023-02-28T07:21:19;2.72;;;2.20;;
6406;SDS011;3236;51.022;6.818;2023-02-28T07:23:47;2.63;;;2.28;;
6406;SDS011;3236;51.022;6.818;2023-02-28T07:26:15;7.43;;;2.67;;
6406;SDS011;3236;51.022;6.818;2023-02-28T07:28:43;3.13;;;2.35;;
6406;SDS011;3236;51.022;6.818;2023-02-28T07:31:11;5.03;;;3.20;;
6406;SDS011;3236;51.022;6.818;2023-02-28T07:33:41;3.97;;;2.50;;
6406;SDS011;3236;51.022;6.818;2023-02-28T07:36:10;7.47;;;3.65;;
6406;SDS011;3236;51.022;6.818;2023-02-28T07:38:40;4.47;;;2.15;;
6406;SDS011;3236;51.022;6.818;2023-02-28T07:41:08;2.80;;;2.00;;
6406;SDS011;3236;51.022;6.818;2023-02-28T07:43:37;3.50;;;2.10;;
6406;SDS011;3236;51.022;6.818;2023-02-28T07:46:05;6.03;;;2.25;;
6406;SDS011;3236;51.022;6.818;2023-02-28T07:48:33;2.60;;;2.22;;
6406;SDS011;3236;51.022;6.818;2023-02-28T07:51:02;5.00;;;2.72;;
6406;SDS011;3236;51.022;6.818;2023-02-28T07:53:33;2.80;;;2.45;;
6406;SDS011;3236;51.022;6.818;2023-02-28T07:56:00;2.92;;;2.45;;
6406;SDS011;3236;51.022;6.818;2023-02-28T07:58:28;3.33;;;2.85;;
6406;SDS011;3236;51.022;6.818;2023-02-28T08:00:57;3.80;;;2.15;;
6406;SDS011;3236;51.022;6.818;2023-02-28T08:03:24;2.55;;;2.35;;
6406;SDS011;3236;51.022;6.818;2023-02-28T08:05:52;2.45;;;2.17;;
6406;SDS011;3236;51.022;6.818;2023-02-28T08:08:21;3.38;;;2.15;;
6406;SDS011;3236;51.022;6.818;2023-02-28T08:10:48;7.93;;;2.55;;
6406;SDS011;3236;51.022;6.818;2023-02-28T08:13:16;2.15;;;1.95;;
6406;SDS011;3236;51.022;6.818;2023-02-28T08:15:44;3.17;;;1.95;;
6406;SDS011;3236;51.022;6.818;2023-02-28T08:18:12;2.95;;;1.98;;
6406;SDS011;3236;51.022;6.818;2023-02-28T08:20:39;2.03;;;1.88;;
6406;SDS011;3236;51.022;6.818;2023-02-28T08:23:06;1.83;;;1.63;;
6406;SDS011;3236;51.022;6.818;2023-02-28T08:25:35;4.15;;;2.33;;
6406;SDS011;3236;51.022;6.818;2023-02-28T08:28:02;2.45;;;1.80;;
6406;SDS011;3236;51.022;6.818;2023-02-28T08:30:33;1.90;;;1.50;;
6406;SDS011;3236;51.022;6.818;2023-02-28T08:33:00;2.85;;;1.92;;
6406;SDS011;3236;51.022;6.818;2023-02-28T08:35:27;3.75;;;2.05;;
6406;SDS011;3236;51.022;6.818;2023-02-28T08:37:54;2.42;;;1.83;;
6406;SDS011;3236;51.022;6.818;2023-02-28T08:40:22;4.95;;;2.15;;
6406;SDS011;3236;51.022;6.818;2023-02-28T08:42:51;3.13;;;2.25;;
6406;SDS011;3236;51.022;6.818;2023-02-28T08:45:18;1.95;;;1.73;;
6406;SDS011;3236;51.022;6.818;2023-02-28T08:47:46;1.95;;;1.65;;
6406;SDS011;3236;51.022;6.818;2023-02-28T08:50:13;2.22;;;2.00;;
6406;SDS011;3236;51.022;6.818;2023-02-28T08:52:42;1.80;;;1.48;;
6406;SDS011;3236;51.022;6.818;2023-02-28T08:55:09;2.53;;;1.23;;
6406;SDS011;3236;51.022;6.818;2023-02-28T08:57:36;1.73;;;1.10;;
6406;SDS011;3236;51.022;6.818;2023-02-28T09:00:05;1.10;;;0.93;;
6406;SDS011;3236;51.022;6.818;2023-02-28T09:02:33;2.45;;;1.33;;
6406;SDS011;3236;51.022;6.818;2023-02-28T09:05:00;0.85;;;0.85;;
6406;SDS011;3236;51.022;6.818;2023-02-28T09:07:28;2.75;;;1.40;;
6406;SDS011;3236;51.022;6.818;2023-02-28T09:09:55;1.38;;;1.10;;
6406;SDS011;3236;51.022;6.818;2023-02-28T09:12:23;5.35;;;1.42;;
6406;SDS011;3236;51.022;6.818;2023-02-28T09:14:51;2.30;;;1.50;;
6406;SDS011;3236;51.022;6.818;2023-02-28T09:17:20;3.05;;;1.75;;
6406;SDS011;3236;51.022;6.818;2023-02-28T09:19:47;1.58;;;1.20;;
6406;SDS011;3236;51.022;6.818;2023-02-28T09:22:15;1.67;;;1.15;;
6406;SDS011;3236;51.022;6.818;2023-02-28T09:24:42;1.90;;;1.13;;
6406;SDS011;3236;51.022;6.818;2023-02-28T09:27:10;3.55;;;1.40;;
6406;SDS011;3236;51.022;6.818;2023-02-28T09:29:37;6.55;;;1.42;;
6406;SDS011;3236;51.022;6.818;2023-02-28T09:32:04;1.63;;;1.30;;
6406;SDS011;3236;51.022;6.818;2023-02-28T09:34:34;3.38;;;1.20;;
6406;SDS011;3236;51.022;6.818;2023-02-28T09:37:02;1.50;;;1.20;;
6406;SDS011;3236;51.022;6.818;2023-02-28T09:39:29;1.80;;;1.55;;
6406;SDS011;3236;51.022;6.818;2023-02-28T09:41:57;2.92;;;1.65;;
6406;SDS011;3236;51.022;6.818;2023-02-28T09:44:26;1.85;;;1.23;;
6406;SDS011;3236;51.022;6.818;2023-02-28T09:46:58;2.15;;;1.48;;
6406;SDS011;3236;51.022;6.818;2023-02-28T09:49:31;1.98;;;1.50;;
6406;SDS011;3236;51.022;6.818;2023-02-28T09:52:05;1.40;;;1.30;;
6406;SDS011;3236;51.022;6.818;2023-02-28T09:54:35;4.10;;;1.63;;
6406;SDS011;3236;51.022;6.818;2023-02-28T09:57:06;1.63;;;1.45;;
6406;SDS011;3236;51.022;6.818;2023-02-28T10:05:32;1.73;;;1.40;;
6406;SDS011;3236;51.022;6.818;2023-02-28T10:08:06;3.75;;;1.70;;
6406;SDS011;3236;51.022;6.818;2023-02-28T10:10:39;4.03;;;1.70;;
6406;SDS011;3236;51.022;6.818;2023-02-28T10:13:13;1.30;;;1.08;;
6406;SDS011;3236;51.022;6.818;2023-02-28T10:15:46;2.72;;;1.80;;
6406;SDS011;3236;51.022;6.818;2023-02-28T10:18:19;1.83;;;1.65;;
6406;SDS011;3236;51.022;6.818;2023-02-28T10:20:52;2.10;;;1.60;;
6406;SDS011;3236;51.022;6.818;2023-02-28T10:23:24;3.08;;;1.60;;
6406;SDS011;3236;51.022;6.818;2023-02-28T10:25:55;1.90;;;1.60;;
6406;SDS011;3236;51.022;6.818;2023-02-28T10:28:26;4.45;;;1.98;;
6406;SDS011;3236;51.022;6.818;2023-02-28T10:30:55;2.50;;;1.90;;
6406;SDS011;3236;51.022;6.818;2023-02-28T10:33:25;2.95;;;1.73;;
6406;SDS011;3236;51.022;6.818;2023-02-28T10:35:56;3.65;;;1.73;;
6406;SDS011;3236;51.022;6.818;2023-02-28T10:38:26;3.17;;;2.20;;
6406;SDS011;3236;51.022;6.818;2023-02-28T10:41:03;4.00;;;1.98;;
6406;SDS011;3236;51.022;6.818;2023-02-28T10:43:35;1.90;;;1.42;;
6406;SDS011;3236;51.022;6.818;2023-02-28T10:46:03;1.75;;;1.65;;
6406;SDS011;3236;51.022;6.818;2023-02-28T10:48:39;4.07;;;2.00;;
6406;SDS011;3236;51.022;6.818;2023-02-28T10:51:10;1.65;;;1.40;;
6406;SDS011;3236;51.022;6.818;2023-02-28T10:53:39;2.60;;;1.52;;
6406;SDS011;3236;51.022;6.818;2023-02-28T10:56:15;2.85;;;1.88;;
6406;SDS011;3236;51.022;6.818;2023-02-28T10:58:47;2.72;;;1.70;;
6406;SDS011;3236;51.022;6.818;2023-02-28T11:01:17;5.40;;;1.60;;
6406;SDS011;3236;51.022;6.818;2023-02-28T11:03:46;2.00;;;1.50;;
6406;SDS011;3236;51.022;6.818;2023-02-28T11:06:15;2.03;;;1.67;;
6406;SDS011;3236;51.022;6.818;2023-02-28T11:08:46;1.95;;;1.85;;
6406;SDS011;3236;51.022;6.818;2023-02-28T11:11:15;2.70;;;1.88;;
6406;SDS011;3236;51.022;6.818;2023-02-28T11:13:43;1.48;;;1.17;;
6406;SDS011;3236;51.022;6.818;2023-02-28T11:16:12;2.17;;;1.70;;
6406;SDS011;3236;51.022;6.818;2023-02-28T11:18:41;1.95;;;1.40;;
6406;SDS011;3236;51.022;6.818;2023-02-28T11:21:23;2.88;;;1.83;;
6406;SDS011;3236;51.022;6.818;2023-02-28T11:23:54;3.35;;;2.17;;
6406;SDS011;3236;51.022;6.818;2023-02-28T11:26:37;2.38;;;1.58;;
6406;SDS011;3236;51.022;6.818;2023-02-28T11:29:11;3.70;;;1.40;;
6406;SDS011;3236;51.022;6.818;2023-02-28T11:31:45;4.70;;;2.42;;
6406;SDS011;3236;51.022;6.818;2023-02-28T11:34:25;3.55;;;2.03;;
6406;SDS011;3236;51.022;6.818;2023-02-28T11:36:55;4.93;;;3.05;;
6406;SDS011;3236;51.022;6.818;2023-02-28T11:39:24;3.05;;;2.20;;
6406;SDS011;3236;51.022;6.818;2023-02-28T11:42:02;3.60;;;2.40;;
6406;SDS011;3236;51.022;6.818;2023-02-28T11:44:54;4.40;;;2.42;;
6406;SDS011;3236;51.022;6.818;2023-02-28T11:47:47;4.13;;;2.90;;
6406;SDS011;3236;51.022;6.818;2023-02-28T11:50:25;3.17;;;1.90;;
6406;SDS011;3236;51.022;6.818;2023-02-28T11:53:05;3.60;;;2.10;;
6406;SDS011;3236;51.022;6.818;2023-02-28T11:55:39;3.63;;;2.00;;
6406;SDS011;3236;51.022;6.818;2023-02-28T11:58:19;2.72;;;1.98;;
6406;SDS011;3236;51.022;6.818;2023-02-28T12:01:01;3.88;;;2.05;;
6406;SDS011;3236;51.022;6.818;2023-02-28T12:03:58;4.88;;;2.10;;
6406;SDS011;3236;51.022;6.818;2023-02-28T12:06:37;3.53;;;2.00;;
6406;SDS011;3236;51.022;6.818;2023-02-28T12:09:14;5.72;;;2.22;;
6406;SDS011;3236;51.022;6.818;2023-02-28T12:11:55;2.58;;;2.08;;
6406;SDS011;3236;51.022;6.818;2023-02-28T12:14:32;2.58;;;1.98;;
6406;SDS011;3236;51.022;6.818;2023-02-28T12:17:21;2.88;;;2.35;;
6406;SDS011;3236;51.022;6.818;2023-02-28T12:20:01;4.45;;;2.67;;
6406;SDS011;3236;51.022;6.818;2023-02-28T12:22:35;3.13;;;1.83;;
6406;SDS011;3236;51.022;6.818;2023-02-28T12:25:28;5.75;;;2.05;;
6406;SDS011;3236;51.022;6.818;2023-02-28T12:28:24;2.75;;;2.13;;
6406;SDS011;3236;51.022;6.818;2023-02-28T12:30:57;2.28;;;1.88;;
6406;SDS011;3236;51.022;6.818;2023-02-28T12:33:29;2.17;;;1.67;;
6406;SDS011;3236;51.022;6.818;2023-02-28T12:36:04;10.93;;;2.35;;
6406;SDS011;3236;51.022;6.818;2023-02-28T12:38:38;3.80;;;2.58;;
6406;SDS011;3236;51.022;6.818;2023-02-28T12:41:12;2.78;;;2.05;;
6406;SDS011;3236;51.022;6.818;2023-02-28T12:43:43;3.17;;;2.00;;
6406;SDS011;3236;51.022;6.818;2023-02-28T12:46:14;5.05;;;2.60;;
6406;SDS011;3236;51.022;6.818;2023-02-28T12:48:44;6.47;;;2.53;;
6406;SDS011;3236;51.022;6.818;2023-02-28T12:51:20;5.03;;;2.88;;
6406;SDS011;3236;51.022;6.818;2023-02-28T12:53:59;4.25;;;2.75;;
6406;SDS011;3236;51.022;6.818;2023-02-28T12:56:42;2.83;;;2.05;;
6406;SDS011;3236;51.022;6.818;2023-02-28T12:59:17;4.68;;;2.60;;
6406;SDS011;3236;51.022;6.818;2023-02-28T13:01:56;2.20;;;1.70;;
6406;SDS011;3236;51.022;6.818;2023-02-28T13:04:33;6.05;;;2.50;;
6406;SDS011;3236;51.022;6.818;2023-02-28T13:10:22;2.85;;;2.10;;
6406;SDS011;3236;51.022;6.818;2023-02-28T13:12:51;5.45;;;2.50;;
6406;SDS011;3236;51.022;6.818;2023-02-28T13:15:22;4.82;;;2.42;;
6406;SDS011;3236;51.022;6.818;2023-02-28T13:17:54;5.45;;;2.13;;
6406;SDS011;3236;51.022;6.818;2023-02-28T13:20:23;4.18;;;2.15;;
6406;SDS011;3236;51.022;6.818;2023-02-28T13:22:53;3.10;;;2.42;;
6406;SDS011;3236;51.022;6.818;2023-02-28T13:31:33;3.55;;;2.83;;
6406;SDS011;3236;51.022;6.818;2023-02-28T13:34:39;4.03;;;2.67;;
6406;SDS011;3236;51.022;6.818;2023-02-28T13:40:06;4.32;;;2.33;;
6406;SDS011;3236;51.022;6.818;2023-02-28T13:42:49;3.42;;;2.50;;
6406;SDS011;3236;51.022;6.818;2023-02-28T13:45:22;3.05;;;2.45;;
6406;SDS011;3236;51.022;6.818;2023-02-28T13:47:53;4.03;;;2.45;;
6406;SDS011;3236;51.022;6.818;2023-02-28T13:50:44;3.78;;;2.60;;
6406;SDS011;3236;51.022;6.818;2023-02-28T13:56:26;3.08;;;2.40;;
6406;SDS011;3236;51.022;6.818;2023-02-28T13:58:57;2.75;;;2.42;;
6406;SDS011;3236;51.022;6.818;2023-02-28T14:07:39;4.63;;;2.13;;
6406;SDS011;3236;51.022;6.818;2023-02-28T14:10:21;3.92;;;1.80;;
6406;SDS011;3236;51.022;6.818;2023-02-28T14:12:55;4.13;;;2.17;;
6406;SDS011;3236;51.022;6.818;2023-02-28T14:15:27;3.47;;;2.28;;
6406;SDS011;3236;51.022;6.818;2023-02-28T14:17:55;2.70;;;2.28;;
6406;SDS011;3236;51.022;6.818;2023-02-28T14:20:26;2.88;;;2.08;;
6406;SDS011;3236;51.022;6.818;2023-02-28T14:22:58;5.82;;;2.33;;
6406;SDS011;3236;51.022;6.818;2023-02-28T14:25:31;3.30;;;2.33;;
6406;SDS011;3236;51.022;6.818;2023-02-28T14:28:04;3.60;;;2.10;;
6406;SDS011;3236;51.022;6.818;2023-02-28T14:30:48;4.18;;;2.33;;
6406;SDS011;3236;51.022;6.818;2023-02-28T14:33:22;3.05;;;2.55;;
6406;SDS011;3236;51.022;6.818;2023-02-28T14:36:04;4.85;;;2.47;;
6406;SDS011;3236;51.022;6.818;2023-02-28T14:38:39;5.75;;;2.53;;
6406;SDS011;3236;51.022;6.818;2023-02-28T14:41:14;3.03;;;2.40;;
6406;SDS011;3236;51.022;6.818;2023-02-28T14:43:52;3.70;;;2.60;;
6406;SDS011;3236;51.022;6.818;2023-02-28T14:46:25;5.93;;;2.58;;
6406;SDS011;3236;51.022;6.818;2023-02-28T14:48:59;4.10;;;2.53;;
6406;SDS011;3236;51.022;6.818;2023-02-28T14:51:26;3.75;;;2.72;;
6406;SDS011;3236;51.022;6.818;2023-02-28T14:53:57;5.80;;;2.50;;
6406;SDS011;3236;51.022;6.818;2023-02-28T14:56:27;6.45;;;2.60;;
6406;SDS011;3236;51.022;6.818;2023-02-28T14:59:00;4.18;;;2.85;;
6406;SDS011;3236;51.022;6.818;2023-02-28T15:01:27;5.32;;;3.15;;
6406;SDS011;3236;51.022;6.818;2023-02-28T15:03:56;2.88;;;2.58;;
6406;SDS011;3236;51.022;6.818;2023-02-28T15:06:24;4.15;;;2.63;;
6406;SDS011;3236;51.022;6.818;2023-02-28T15:11:46;3.28;;;2.50;;
6406;SDS011;3236;51.022;6.818;2023-02-28T15:14:19;3.42;;;2.83;;
6406;SDS011;3236;51.022;6.818;2023-02-28T15:16:49;3.50;;;2.88;;
6406;SDS011;3236;51.022;6.818;2023-02-28T15:19:22;2.97;;;2.67;;
6406;SDS011;3236;51.022;6.818;2023-02-28T15:21:53;3.92;;;2.63;;
6406;SDS011;3236;51.022;6.818;2023-02-28T15:24:30;4.15;;;2.65;;
6406;SDS011;3236;51.022;6.818;2023-02-28T15:27:04;4.88;;;2.90;;
6406;SDS011;3236;51.022;6.818;2023-02-28T15:29:35;4.75;;;2.67;;
6406;SDS011;3236;51.022;6.818;2023-02-28T15:32:20;5.00;;;2.78;;
6406;SDS011;3236;51.022;6.818;2023-02-28T15:34:51;2.50;;;2.30;;
6406;SDS011;3236;51.022;6.818;2023-02-28T15:37:29;4.30;;;2.70;;
6406;SDS011;3236;51.022;6.818;2023-02-28T15:40:06;4.25;;;2.40;;
6406;SDS011;3236;51.022;6.818;2023-02-28T15:42:57;3.88;;;2.50;;
6406;SDS011;3236;51.022;6.818;2023-02-28T15:45:38;3.88;;;2.50;;
6406;SDS011;3236;51.022;6.818;2023-02-28T15:48:15;3.95;;;2.45;;
6406;SDS011;3236;51.022;6.818;2023-02-28T15:50:47;5.32;;;2.40;;
6406;SDS011;3236;51.022;6.818;2023-02-28T15:53:18;3.70;;;2.58;;
6406;SDS011;3236;51.022;6.818;2023-02-28T15:55:51;3.58;;;2.55;;
6406;SDS011;3236;51.022;6.818;2023-02-28T15:58:26;7.28;;;2.55;;
6406;SDS011;3236;51.022;6.818;2023-02-28T16:01:07;6.05;;;2.78;;
6406;SDS011;3236;51.022;6.818;2023-02-28T16:03:44;5.85;;;2.53;;
6406;SDS011;3236;51.022;6.818;2023-02-28T16:06:30;5.15;;;3.45;;
6406;SDS011;3236;51.022;6.818;2023-02-28T16:09:00;5.72;;;2.97;;
6406;SDS011;3236;51.022;6.818;2023-02-28T16:11:28;3.05;;;2.45;;
6406;SDS011;3236;51.022;6.818;2023-02-28T16:13:58;7.30;;;2.90;;
6406;SDS011;3236;51.022;6.818;2023-02-28T16:16:25;4.45;;;2.65;;
6406;SDS011;3236;51.022;6.818;2023-02-28T16:18:52;4.28;;;2.83;;